This is the latest recevied weather packets stored in our database for station/object DL9RAN-11. If no packets are shown the sender has not sent any weather packets the latest 10 day(s).
| Time | Temp. | Humidity | Pressure | Rain* | Wind** | Luminosity | Snow |
|---|---|---|---|---|---|---|---|
| 1777614494 | 7.22° C | 51% | 1030.7 hPa | - | - | - | - |
| 1777613532 | 7.22° C | 51% | 1030.7 hPa | - | - | - | - |
| 1777612900 | 6.67° C | 51% | 1030.7 hPa | - | - | - | - |
| 1777611607 | 6.11° C | 51% | 1030.5 hPa | - | - | - | - |
| 1777609982 | 5° C | 50% | 1030.3 hPa | - | - | - | - |
| 1777609350 | 5° C | 51% | 1030.3 hPa | - | - | - | - |
| 1777609050 | 5° C | 50% | 1030.3 hPa | - | - | - | - |
| 1777608750 | 5° C | 50% | 1030.3 hPa | - | - | - | - |
| 1777608449 | 5° C | 50% | 1030.2 hPa | - | - | - | - |
| 1777607156 | 5.56° C | 49% | 1030.2 hPa | - | - | - | - |
| 1777606524 | 5.56° C | 48% | 1030.2 hPa | - | - | - | - |
| 1777605562 | 5.56° C | 48% | 1030.1 hPa | - | - | - | - |
| 1777605261 | 5.56° C | 48% | 1030.1 hPa | - | - | - | - |
| 1777603967 | 5.56° C | 47% | 1030.2 hPa | - | - | - | - |
| 1777603336 | 6.11° C | 47% | 1030.3 hPa | - | - | - | - |
| 1777602704 | 6.11° C | 46% | 1030.3 hPa | - | - | - | - |
| 1777602404 | 6.11° C | 46% | 1030.3 hPa | - | - | - | - |
| 1777601772 | 6.11° C | 46% | 1030.3 hPa | - | - | - | - |
| 1777601472 | 6.67° C | 46% | 1030.3 hPa | - | - | - | - |
| 1777599847 | 6.67° C | 44% | 1030.3 hPa | - | - | - | - |
| 1777599546 | 6.67° C | 44% | 1030.3 hPa | - | - | - | - |
| 1777598584 | 6.67° C | 43% | 1030.4 hPa | - | - | - | - |
| 1777598284 | 7.22° C | 43% | 1030.4 hPa | - | - | - | - |
| 1777597652 | 7.22° C | 43% | 1030.3 hPa | - | - | - | - |
| 1777595696 | 7.22° C | 42% | 1030.4 hPa | - | - | - | - |
* Rain since midnight (hover to see other rain measurements)
** Current wind speed in m/s (hover to see current wind gust speed)